createdAt,value
2023-04-26T00:01:05.626Z,11.05
2023-04-26T00:02:08.985Z,10.48
2023-04-26T00:03:13.489Z,11.63
2023-04-26T00:04:16.402Z,11.20
2023-04-26T00:05:20.064Z,12.68
2023-04-26T00:06:22.757Z,11.02
2023-04-26T00:07:28.857Z,11.65
2023-04-26T00:08:31.478Z,12.07
2023-04-26T00:09:35.385Z,11.40
2023-04-26T00:10:38.083Z,10.70
2023-04-26T00:11:41.479Z,9.75
2023-04-26T00:12:43.753Z,11.60
2023-04-26T00:13:46.997Z,10.93
2023-04-26T00:14:49.386Z,11.27
2023-04-26T00:15:53.061Z,10.40
2023-04-26T00:16:55.800Z,10.23
2023-04-26T00:17:59.658Z,11.25
2023-04-26T00:19:02.397Z,11.57
2023-04-26T00:20:11.689Z,11.50
2023-04-26T00:21:14.013Z,11.20
2023-04-26T00:22:17.579Z,10.85
2023-04-26T00:23:21.667Z,12.35
2023-04-26T00:24:25.032Z,11.52
2023-04-26T00:25:27.597Z,11.07
2023-04-26T00:26:31.607Z,11.30
2023-04-26T00:27:33.857Z,12.93
2023-04-26T00:28:37.347Z,12.00
2023-04-26T00:29:39.686Z,11.98
2023-04-26T00:30:51.170Z,12.43
2023-04-26T00:32:06.040Z,12.05
2023-04-26T00:33:09.509Z,12.27
2023-04-26T00:34:12.728Z,12.15
2023-04-26T00:35:16.350Z,11.80
2023-04-26T00:36:19.628Z,11.35
2023-04-26T00:37:23.481Z,12.73
2023-04-26T00:38:48.098Z,11.13
2023-04-26T00:39:55.804Z,11.50
2023-04-26T00:40:59.178Z,12.50
2023-04-26T00:42:03.080Z,12.13
2023-04-26T00:43:06.935Z,13.35
2023-04-26T00:44:10.209Z,12.15
2023-04-26T00:45:12.700Z,13.07
2023-04-26T00:46:16.232Z,12.68
2023-04-26T00:47:20.777Z,11.57
2023-04-26T00:48:24.388Z,13.27
2023-04-26T00:49:27.215Z,13.13
2023-04-26T00:50:30.888Z,12.50
2023-04-26T00:51:33.468Z,13.40
2023-04-26T00:52:40.062Z,12.15
2023-04-26T00:53:45.309Z,12.35
2023-04-26T00:54:51.645Z,12.90
2023-04-26T00:55:56.934Z,11.77
2023-04-26T00:57:00.748Z,13.25
2023-04-26T00:58:03.757Z,12.88
2023-04-26T00:59:07.545Z,11.23
2023-04-26T01:00:10.727Z,11.95
2023-04-26T01:01:14.890Z,11.20
2023-04-26T01:02:21.444Z,10.95
2023-04-26T01:03:29.265Z,10.45
2023-04-26T01:04:33.464Z,11.15
2023-04-26T01:05:37.285Z,13.10
2023-04-26T01:06:41.124Z,12.02
2023-04-26T01:07:44.602Z,11.43
2023-04-26T01:08:52.507Z,10.75
2023-04-26T01:09:59.645Z,9.95
2023-04-26T01:11:04.914Z,10.23
2023-04-26T01:12:10.221Z,10.63
2023-04-26T01:13:14.528Z,11.50
2023-04-26T01:14:17.694Z,12.35
2023-04-26T01:15:20.713Z,11.90
2023-04-26T01:16:26.789Z,10.25
2023-04-26T01:17:32.287Z,10.00
2023-04-26T01:18:37.032Z,9.20
2023-04-26T01:19:49.786Z,9.80
2023-04-26T01:20:54.525Z,9.60
2023-04-26T01:21:57.499Z,10.57
2023-04-26T01:23:02.708Z,12.27
2023-04-26T01:24:08.311Z,10.35
2023-04-26T01:26:31.204Z,9.90
2023-04-26T01:27:33.540Z,10.07
2023-04-26T01:28:36.935Z,10.80
2023-04-26T01:29:40.755Z,8.60
2023-04-26T01:30:44.607Z,9.43
2023-04-26T01:31:47.390Z,9.98
2023-04-26T01:32:50.917Z,9.88
2023-04-26T01:33:54.221Z,8.70
2023-04-26T01:34:58.372Z,9.85
2023-04-26T01:36:01.041Z,9.48
2023-04-26T01:37:07.762Z,8.25
2023-04-26T01:38:11.836Z,7.95
2023-04-26T01:39:15.087Z,7.88
2023-04-26T01:40:18.596Z,8.30
2023-04-26T01:41:21.826Z,7.95
2023-04-26T01:42:24.571Z,8.82
2023-04-26T01:43:28.151Z,9.00
2023-04-26T01:44:32.943Z,7.80
2023-04-26T01:45:38.176Z,8.60
2023-04-26T01:47:09.736Z,7.70
2023-04-26T01:48:14.559Z,8.60
2023-04-26T01:49:17.338Z,7.97
2023-04-26T01:50:20.926Z,7.78
2023-04-26T01:51:23.423Z,7.15
2023-04-26T01:52:27.867Z,7.35
2023-04-26T01:53:31.981Z,6.95
2023-04-26T01:54:35.502Z,8.63
2023-04-26T01:55:37.690Z,8.15
2023-04-26T01:56:42.975Z,8.85
2023-04-26T01:57:45.309Z,9.25
2023-04-26T01:58:48.930Z,9.15
2023-04-26T01:59:51.273Z,7.85
2023-04-26T02:00:56.354Z,9.55
2023-04-26T02:01:58.533Z,10.07
2023-04-26T02:03:03.062Z,8.52
2023-04-26T02:04:06.687Z,9.35
2023-04-26T02:05:12.469Z,9.35
2023-04-26T02:06:14.757Z,8.80
2023-04-26T02:07:18.474Z,8.70
2023-04-26T02:08:23.802Z,7.60
2023-04-26T02:09:28.854Z,9.10
2023-04-26T02:10:31.063Z,8.48
2023-04-26T02:11:34.569Z,8.20
2023-04-26T02:12:36.824Z,8.57
2023-04-26T02:13:41.502Z,8.20
2023-04-26T02:14:43.786Z,7.15
2023-04-26T02:15:48.547Z,7.82
2023-04-26T02:16:53.188Z,7.47
2023-04-26T02:17:56.195Z,8.18
2023-04-26T02:19:00.213Z,7.03
2023-04-26T02:20:02.579Z,8.95
2023-04-26T02:21:08.612Z,8.30
2023-04-26T02:22:11.934Z,8.55
2023-04-26T02:23:17.175Z,7.57
2023-04-26T02:24:21.579Z,8.20
2023-04-26T02:25:25.245Z,7.60
2023-04-26T02:26:32.970Z,7.53
2023-04-26T02:27:36.436Z,7.00
2023-04-26T02:28:39.787Z,7.70
2023-04-26T02:29:44.345Z,7.72
2023-04-26T02:30:48.960Z,8.25
2023-04-26T02:31:51.339Z,7.55
2023-04-26T02:32:55.226Z,8.23
2023-04-26T02:33:57.437Z,7.43
2023-04-26T02:35:01.022Z,7.78
2023-04-26T02:36:04.797Z,7.03
2023-04-26T02:37:09.115Z,7.22
2023-04-26T02:38:11.610Z,7.65
2023-04-26T02:39:14.786Z,7.63
2023-04-26T02:40:17.101Z,7.90
2023-04-26T02:41:21.980Z,7.07
2023-04-26T02:42:24.808Z,7.40
2023-04-26T02:43:28.972Z,8.18
2023-04-26T02:44:31.460Z,7.25
2023-04-26T02:45:34.947Z,7.28
2023-04-26T02:46:37.314Z,7.55
2023-04-26T02:47:41.065Z,7.03
2023-04-26T02:48:43.753Z,8.43
2023-04-26T02:49:47.228Z,7.22
2023-04-26T02:50:49.316Z,7.82
2023-04-26T02:51:52.987Z,7.70
2023-04-26T02:52:55.768Z,6.75
2023-04-26T02:53:59.397Z,8.13
2023-04-26T02:55:02.396Z,8.05
2023-04-26T02:56:06.238Z,7.15
2023-04-26T02:57:11.781Z,7.45
2023-04-26T02:58:15.597Z,9.43
2023-04-26T02:59:20.001Z,8.45
2023-04-26T03:00:24.450Z,7.95
2023-04-26T03:01:29.194Z,8.20
2023-04-26T03:02:33.523Z,8.80
2023-04-26T03:03:37.349Z,8.77
2023-04-26T03:04:42.246Z,8.43
2023-04-26T03:05:44.521Z,7.45
2023-04-26T03:06:48.187Z,7.45
2023-04-26T03:07:51.290Z,8.18
2023-04-26T03:08:55.174Z,7.80
2023-04-26T03:09:58.064Z,8.68
2023-04-26T03:11:01.762Z,7.80
2023-04-26T03:12:04.475Z,8.57
2023-04-26T03:13:10.431Z,8.63
2023-04-26T03:14:13.272Z,8.38
2023-04-26T03:15:16.920Z,7.20
2023-04-26T03:16:20.521Z,7.28
2023-04-26T03:17:23.946Z,7.68
2023-04-26T03:18:26.396Z,8.13
2023-04-26T03:19:29.883Z,8.75
2023-04-26T03:20:32.407Z,9.00
2023-04-26T03:21:36.018Z,8.65
2023-04-26T03:22:40.263Z,8.52
2023-04-26T03:23:42.976Z,7.90
2023-04-26T03:24:47.738Z,8.15
2023-04-26T03:25:50.592Z,8.85
2023-04-26T03:26:53.909Z,8.57
2023-04-26T03:27:56.906Z,8.63
2023-04-26T03:29:03.752Z,8.20
2023-04-26T03:30:07.735Z,7.55
2023-04-26T03:31:12.686Z,8.30
2023-04-26T03:32:14.974Z,6.70
2023-04-26T03:33:18.519Z,7.95
2023-04-26T03:34:21.185Z,7.00
2023-04-26T03:35:24.591Z,8.43
2023-04-26T03:36:28.657Z,7.95
2023-04-26T03:37:33.225Z,8.75
2023-04-26T03:38:40.601Z,8.90
2023-04-26T03:39:42.766Z,8.77
2023-04-26T03:40:46.806Z,8.45
2023-04-26T03:41:49.093Z,8.20
2023-04-26T03:42:52.586Z,8.73
2023-04-26T03:43:55.123Z,7.32
2023-04-26T03:44:59.700Z,7.60
2023-04-26T03:46:02.079Z,7.90
2023-04-26T03:47:05.728Z,7.70
2023-04-26T03:48:08.165Z,7.63
2023-04-26T03:49:11.278Z,8.20
2023-04-26T03:50:13.737Z,7.85
2023-04-26T03:51:17.315Z,7.47
2023-04-26T03:52:19.992Z,8.52
2023-04-26T03:53:23.846Z,7.60
2023-04-26T03:54:26.027Z,7.18
2023-04-26T03:55:29.848Z,7.07
2023-04-26T03:56:32.228Z,6.93
2023-04-26T03:57:36.192Z,7.18
2023-04-26T03:58:39.779Z,6.32
2023-04-26T03:59:43.550Z,7.28
2023-04-26T04:00:47.078Z,7.00
2023-04-26T04:01:50.227Z,6.22
2023-04-26T04:02:52.985Z,9.10
2023-04-26T04:04:01.069Z,7.88
2023-04-26T04:05:04.713Z,7.63
2023-04-26T04:06:08.254Z,7.70
2023-04-26T04:07:10.683Z,7.40
2023-04-26T04:08:13.961Z,8.13
2023-04-26T04:09:16.607Z,8.52
2023-04-26T04:10:20.325Z,9.70
2023-04-26T04:11:23.080Z,9.43
2023-04-26T04:12:27.448Z,8.48
2023-04-26T04:13:29.895Z,8.40
2023-04-26T04:14:33.475Z,8.45
2023-04-26T04:15:36.871Z,9.02
2023-04-26T04:16:40.836Z,7.80
2023-04-26T04:17:44.743Z,7.53
2023-04-26T04:18:47.161Z,7.75
2023-04-26T04:19:50.534Z,7.80
2023-04-26T04:20:52.964Z,7.75
2023-04-26T04:21:56.532Z,9.10
2023-04-26T04:23:00.320Z,8.77
2023-04-26T04:24:03.962Z,8.77
2023-04-26T04:25:06.990Z,8.20
2023-04-26T04:26:12.720Z,7.72
2023-04-26T04:27:16.293Z,7.30
2023-04-26T04:28:22.559Z,8.23
2023-04-26T04:29:24.860Z,8.48
2023-04-26T04:30:28.105Z,9.25
2023-04-26T04:31:30.379Z,8.23
2023-04-26T04:32:35.215Z,7.82
2023-04-26T04:33:37.815Z,7.78
2023-04-26T04:34:41.762Z,8.05
2023-04-26T04:35:45.051Z,7.72
2023-04-26T04:36:48.446Z,8.10
2023-04-26T04:37:50.666Z,7.70
2023-04-26T04:38:54.483Z,7.97
2023-04-26T04:39:58.023Z,8.05
2023-04-26T04:41:01.374Z,7.65
2023-04-26T04:42:04.170Z,8.15
2023-04-26T04:43:07.786Z,6.97
2023-04-26T04:44:11.053Z,7.05
2023-04-26T04:45:15.389Z,7.70
2023-04-26T04:46:18.232Z,7.85
2023-04-26T04:47:22.403Z,8.43
2023-04-26T04:48:26.607Z,9.40
2023-04-26T04:49:32.016Z,8.30
2023-04-26T04:50:34.543Z,7.78
2023-04-26T04:51:38.360Z,9.05
2023-04-26T04:52:41.185Z,8.50
2023-04-26T04:53:44.596Z,8.73
2023-04-26T04:54:47.166Z,8.18
2023-04-26T04:55:51.785Z,8.50
2023-04-26T04:56:54.087Z,7.53
2023-04-26T04:57:57.664Z,7.85
2023-04-26T04:59:03.160Z,8.93
2023-04-26T05:00:10.455Z,8.95
2023-04-26T05:01:19.945Z,8.20
2023-04-26T05:02:26.596Z,9.07
2023-04-26T05:03:34.136Z,7.82
2023-04-26T05:04:38.230Z,7.50
2023-04-26T05:05:42.482Z,8.20
2023-04-26T05:06:47.400Z,8.38
2023-04-26T05:07:50.950Z,8.02
2023-04-26T05:08:53.462Z,7.60
2023-04-26T05:09:57.262Z,6.95
2023-04-26T05:11:00.245Z,6.55
2023-04-26T05:12:04.324Z,7.80
2023-04-26T05:13:11.679Z,8.60
2023-04-26T05:14:14.790Z,7.90
2023-04-26T05:15:19.174Z,7.80
2023-04-26T05:16:24.449Z,8.48
2023-04-26T05:17:28.375Z,8.48
2023-04-26T05:18:33.302Z,8.65
2023-04-26T05:19:37.300Z,8.02
2023-04-26T05:20:41.897Z,8.05
2023-04-26T05:21:46.642Z,8.80
2023-04-26T05:22:50.186Z,8.38
2023-04-26T05:23:52.905Z,8.30
2023-04-26T05:24:56.611Z,7.38
2023-04-26T05:26:02.242Z,7.97
2023-04-26T05:27:23.580Z,8.70
2023-04-26T05:28:29.531Z,8.20
2023-04-26T05:29:58.814Z,9.50
2023-04-26T05:31:14.620Z,8.25
2023-04-26T05:32:36.728Z,9.30
2023-04-26T05:33:55.909Z,8.82
2023-04-26T05:35:20.480Z,9.95
2023-04-26T05:36:22.967Z,9.85
2023-04-26T05:37:26.476Z,8.88
2023-04-26T05:38:28.849Z,9.40
2023-04-26T05:39:32.370Z,9.15
2023-04-26T05:40:34.651Z,9.23
2023-04-26T05:41:38.566Z,8.95
2023-04-26T05:42:40.932Z,8.98
2023-04-26T05:43:47.437Z,8.80
2023-04-26T05:44:49.811Z,8.70
2023-04-26T05:45:53.617Z,8.38
2023-04-26T05:46:56.286Z,10.32
2023-04-26T05:48:02.403Z,10.20
2023-04-26T05:49:08.776Z,10.95
2023-04-26T05:50:12.477Z,10.38
2023-04-26T05:51:15.087Z,8.77
2023-04-26T05:52:18.765Z,8.23
2023-04-26T05:53:22.033Z,9.35
2023-04-26T05:54:26.838Z,8.38
2023-04-26T05:55:29.215Z,10.27
2023-04-26T05:56:33.010Z,9.00
2023-04-26T05:57:40.967Z,8.48
2023-04-26T05:58:45.118Z,8.70
2023-04-26T05:59:47.865Z,8.80
2023-04-26T06:00:54.519Z,9.32
2023-04-26T06:01:57.086Z,7.95
2023-04-26T06:03:01.085Z,8.20
2023-04-26T06:04:06.740Z,8.77
2023-04-26T06:05:20.837Z,8.20
2023-04-26T06:06:23.475Z,8.38
2023-04-26T06:07:26.925Z,7.47
2023-04-26T06:08:29.223Z,8.07
2023-04-26T06:09:33.964Z,7.15
2023-04-26T06:10:40.631Z,7.60
2023-04-26T06:11:44.062Z,8.35
2023-04-26T06:12:46.954Z,7.15
2023-04-26T06:13:51.110Z,7.25
2023-04-26T06:14:56.736Z,8.13
2023-04-26T06:16:06.494Z,8.40
2023-04-26T06:17:09.000Z,8.43
2023-04-26T06:18:12.486Z,9.68
2023-04-26T06:19:18.359Z,7.93
2023-04-26T06:20:22.188Z,7.55
2023-04-26T06:21:25.617Z,8.45
2023-04-26T06:22:27.899Z,8.85
2023-04-26T06:23:31.242Z,8.65
2023-04-26T06:24:35.697Z,6.93
2023-04-26T06:25:42.264Z,7.60
2023-04-26T06:26:44.889Z,7.13
2023-04-26T06:27:48.317Z,7.60
2023-04-26T06:28:50.738Z,8.27
2023-04-26T06:29:54.502Z,9.30
2023-04-26T06:30:57.872Z,7.07
2023-04-26T06:32:01.910Z,8.93
2023-04-26T06:33:04.769Z,9.32
2023-04-26T06:34:09.662Z,8.73
2023-04-26T06:35:13.906Z,7.95
2023-04-26T06:36:17.616Z,7.95
2023-04-26T06:37:19.867Z,7.45
2023-04-26T06:38:23.282Z,8.32
2023-04-26T06:39:27.419Z,8.13
2023-04-26T06:40:31.048Z,8.00
2023-04-26T06:41:34.242Z,9.95
2023-04-26T06:42:36.772Z,8.00
2023-04-26T06:44:03.421Z,9.13
2023-04-26T06:45:09.280Z,8.13
2023-04-26T06:46:13.246Z,7.25
2023-04-26T06:47:16.091Z,7.53
2023-04-26T06:48:20.501Z,6.85
2023-04-26T06:49:32.010Z,6.75
2023-04-26T06:50:42.108Z,6.40
2023-04-26T06:51:47.950Z,6.68
2023-04-26T06:52:52.348Z,7.00
2023-04-26T06:54:01.363Z,6.45
2023-04-26T06:55:05.820Z,6.90
2023-04-26T06:56:08.568Z,7.60
2023-04-26T06:57:15.619Z,6.50
2023-04-26T06:58:22.330Z,6.78
2023-04-26T06:59:30.587Z,5.78
2023-04-26T07:00:38.438Z,5.90
2023-04-26T07:01:41.363Z,4.63
2023-04-26T07:02:44.996Z,4.00
2023-04-26T07:03:47.537Z,4.97
2023-04-26T07:04:51.166Z,4.32
2023-04-26T07:05:56.528Z,3.92
2023-04-26T07:07:00.283Z,4.78
2023-04-26T07:08:04.064Z,4.45
2023-04-26T07:09:06.445Z,4.53
2023-04-26T07:10:11.156Z,4.70
2023-04-26T07:11:14.837Z,4.35
2023-04-26T07:12:18.388Z,5.07
2023-04-26T07:13:21.793Z,3.80
2023-04-26T07:14:28.011Z,4.75
2023-04-26T07:15:32.710Z,4.65
2023-04-26T07:16:38.027Z,4.30
2023-04-26T07:17:41.499Z,4.72
2023-04-26T07:18:43.880Z,4.10
2023-04-26T07:19:47.112Z,4.28
2023-04-26T07:20:50.413Z,4.38
2023-04-26T07:21:56.355Z,4.25
2023-04-26T07:22:59.740Z,4.82
2023-04-26T07:24:04.107Z,4.20
2023-04-26T07:25:08.381Z,4.25
2023-04-26T07:26:11.799Z,4.43
2023-04-26T07:27:15.296Z,5.15
2023-04-26T07:28:17.709Z,4.40
2023-04-26T07:29:23.497Z,4.97
2023-04-26T07:30:27.668Z,4.03
2023-04-26T07:31:31.891Z,5.03
2023-04-26T07:32:35.319Z,4.82
2023-04-26T07:33:37.672Z,4.15
2023-04-26T07:34:43.279Z,4.53
2023-04-26T07:35:47.375Z,4.90
2023-04-26T07:36:51.407Z,4.93
2023-04-26T07:37:56.986Z,4.18
2023-04-26T07:39:00.632Z,4.45
2023-04-26T07:40:12.713Z,5.10
2023-04-26T07:41:17.843Z,5.80
2023-04-26T07:42:23.119Z,4.95
2023-04-26T07:43:28.886Z,4.63
2023-04-26T07:44:35.328Z,5.45
2023-04-26T07:45:37.962Z,4.40
2023-04-26T07:46:41.888Z,4.68
2023-04-26T07:48:11.381Z,4.10
2023-04-26T07:49:29.670Z,4.88
2023-04-26T07:50:32.605Z,5.43
2023-04-26T07:51:52.469Z,5.93
2023-04-26T07:53:15.929Z,5.15
2023-04-26T07:54:21.875Z,4.75
2023-04-26T07:58:20.702Z,4.90
2023-04-26T07:59:29.299Z,5.20
2023-04-26T08:00:38.628Z,5.35
2023-04-26T08:01:56.587Z,5.38
2023-04-26T08:03:05.982Z,4.95
2023-04-26T08:04:23.303Z,5.13
2023-04-26T08:05:30.301Z,6.75
2023-04-26T08:06:39.718Z,5.93
2023-04-26T08:10:46.363Z,5.22
2023-04-26T08:11:52.668Z,5.60
2023-04-26T08:13:03.358Z,6.45
2023-04-26T08:14:07.293Z,5.90
2023-04-26T08:16:51.536Z,6.65
2023-04-26T08:19:27.165Z,5.97
2023-04-26T08:20:42.719Z,6.70
2023-04-26T08:21:58.538Z,5.38
2023-04-26T08:41:30.810Z,6.88
2023-04-26T08:43:09.226Z,5.40
2023-04-26T08:45:50.303Z,6.50
2023-04-26T08:51:44.750Z,5.47
2023-04-26T08:53:19.776Z,5.00
2023-04-26T08:55:07.691Z,5.93
2023-04-26T08:57:25.164Z,5.40
2023-04-26T09:02:43.176Z,4.65
2023-04-26T09:09:32.966Z,5.20
2023-04-26T09:10:43.616Z,5.57
2023-04-26T09:11:59.769Z,5.55
2023-04-26T09:13:03.142Z,5.72
2023-04-26T09:14:05.783Z,5.40
2023-04-26T09:15:10.448Z,6.25
2023-04-26T09:16:12.739Z,6.50
2023-04-26T09:17:32.718Z,6.18
2023-04-26T09:18:36.290Z,6.30
2023-04-26T09:19:42.705Z,5.13
2023-04-26T09:20:47.586Z,5.72
2023-04-26T09:21:50.554Z,6.28
2023-04-26T09:22:54.987Z,6.13
2023-04-26T09:23:58.333Z,6.15
2023-04-26T09:25:03.940Z,6.95
2023-04-26T09:26:20.156Z,6.05
2023-04-26T09:27:34.530Z,5.72
2023-04-26T09:28:37.959Z,5.65
2023-04-26T09:29:41.175Z,5.13
2023-04-26T09:30:44.764Z,4.35
2023-04-26T09:31:50.274Z,5.47
2023-04-26T09:32:57.424Z,5.63
2023-04-26T09:34:03.382Z,5.80
2023-04-26T09:35:09.196Z,4.65
2023-04-26T09:36:13.524Z,5.70
2023-04-26T09:37:16.854Z,6.00
2023-04-26T09:38:20.777Z,5.50
2023-04-26T09:39:32.826Z,4.38
2023-04-26T09:40:38.037Z,5.82
2023-04-26T09:41:45.853Z,5.70
2023-04-26T09:42:59.115Z,4.63
2023-04-26T09:44:02.600Z,5.30
2023-04-26T09:45:07.391Z,4.82
2023-04-26T09:46:10.874Z,5.78
2023-04-26T09:47:13.394Z,6.28
2023-04-26T09:48:23.070Z,6.10
2023-04-26T09:49:26.951Z,6.18
2023-04-26T09:50:33.096Z,5.90
2023-04-26T09:51:35.379Z,6.47
2023-04-26T09:52:44.974Z,5.57
2023-04-26T09:53:51.123Z,4.95
2023-04-26T09:54:55.406Z,6.15
2023-04-26T09:56:08.532Z,6.50
2023-04-26T09:57:11.769Z,6.20
2023-04-26T09:58:16.804Z,5.57
2023-04-26T09:59:19.261Z,5.90
2023-04-26T10:00:23.523Z,5.85
2023-04-26T10:01:29.395Z,5.65
2023-04-26T10:02:33.998Z,5.30
2023-04-26T10:03:38.790Z,5.60
2023-04-26T10:04:44.041Z,5.70
2023-04-26T10:05:48.649Z,5.70
2023-04-26T10:06:54.734Z,5.43
2023-04-26T10:14:58.538Z,4.95
2023-04-26T10:16:02.947Z,4.22
2023-04-26T10:17:06.098Z,4.82
2023-04-26T10:18:10.044Z,4.20
2023-04-26T10:19:12.655Z,3.63
2023-04-26T10:20:18.092Z,3.88
2023-04-26T10:21:26.398Z,4.35
2023-04-26T10:22:33.937Z,3.90
2023-04-26T10:23:38.023Z,3.72
2023-04-26T10:24:41.212Z,4.70
2023-04-26T10:25:44.680Z,4.03
2023-04-26T10:26:52.163Z,4.28
2023-04-26T10:27:58.216Z,4.15
2023-04-26T10:29:02.882Z,3.47
2023-04-26T10:30:14.155Z,5.00
2023-04-26T10:31:17.787Z,4.00
2023-04-26T10:32:20.160Z,4.60
2023-04-26T10:33:24.835Z,4.45
2023-04-26T10:34:27.492Z,3.42
2023-04-26T10:35:31.850Z,3.95
2023-04-26T10:37:06.872Z,3.97
2023-04-26T10:38:10.153Z,3.70
2023-04-26T10:39:22.077Z,3.15
2023-04-26T10:40:26.593Z,3.40
2023-04-26T10:41:41.418Z,2.85
2023-04-26T10:42:45.518Z,3.00
2023-04-26T10:43:49.432Z,3.30
2023-04-26T10:45:22.648Z,3.25
2023-04-26T10:46:37.493Z,2.65
2023-04-26T10:47:44.302Z,4.20
2023-04-26T10:48:46.889Z,3.80
2023-04-26T10:49:50.707Z,3.20
2023-04-26T10:51:12.208Z,2.95
2023-04-26T10:52:17.384Z,2.40
2023-04-26T10:53:19.892Z,3.13
2023-04-26T10:54:23.609Z,3.22
2023-04-26T10:55:41.042Z,3.20
2023-04-26T10:56:53.123Z,3.05
2023-04-26T10:57:57.536Z,3.40
2023-04-26T10:59:30.652Z,2.95
2023-04-26T11:00:33.768Z,3.70
2023-04-26T11:01:38.331Z,3.22
2023-04-26T11:03:50.088Z,3.40
2023-04-26T11:06:08.177Z,3.53
2023-04-26T11:11:54.357Z,3.40
2023-04-26T11:13:03.731Z,3.72
2023-04-26T11:14:23.610Z,3.70
2023-04-26T11:15:41.841Z,3.70
2023-04-26T11:16:47.797Z,3.03
2023-04-26T11:17:54.112Z,3.17
2023-04-26T11:19:03.822Z,4.10
2023-04-26T11:20:19.731Z,4.20
2023-04-26T11:32:14.892Z,4.20
2023-04-26T11:34:46.013Z,4.15
2023-04-26T11:36:25.704Z,3.65
2023-04-26T11:40:16.184Z,3.78
2023-04-26T11:48:26.015Z,3.28
2023-04-26T11:49:30.284Z,3.30
2023-04-26T11:50:34.446Z,3.47
2023-04-26T11:51:38.439Z,4.65
2023-04-26T11:52:41.788Z,5.07
2023-04-26T11:53:45.697Z,4.65
2023-04-26T11:54:47.953Z,4.60
2023-04-26T11:56:30.082Z,4.20
2023-04-26T11:57:38.608Z,4.40
2023-04-26T11:58:49.251Z,4.90
2023-04-26T11:59:52.268Z,5.25
2023-04-26T12:00:59.559Z,4.95
2023-04-26T12:02:10.735Z,4.50
2023-04-26T12:03:16.804Z,4.50
2023-04-26T12:04:21.128Z,4.57
2023-04-26T12:05:28.750Z,5.15
2023-04-26T12:06:33.964Z,4.20
2023-04-26T12:07:43.485Z,4.13
2023-04-26T12:08:51.513Z,4.45
2023-04-26T12:09:55.381Z,4.70
2023-04-26T12:14:08.265Z,4.32
2023-04-26T12:15:22.023Z,4.63
2023-04-26T12:16:27.137Z,3.90
2023-04-26T12:17:31.471Z,3.67
2023-04-26T12:18:35.417Z,3.92
2023-04-26T12:19:41.062Z,3.17
2023-04-26T12:20:46.631Z,4.53
2023-04-26T12:21:50.785Z,4.55
2023-04-26T12:23:00.609Z,3.90
2023-04-26T12:25:24.303Z,3.20
2023-04-26T12:26:45.879Z,3.67
2023-04-26T12:27:58.934Z,3.30
2023-04-26T12:29:10.144Z,3.42
2023-04-26T12:31:33.125Z,3.58
2023-04-26T12:33:45.651Z,3.70
2023-04-26T12:35:04.281Z,2.90
2023-04-26T12:36:25.414Z,3.53
2023-04-26T12:39:37.276Z,2.80
2023-04-26T12:44:17.038Z,3.42
2023-04-26T12:45:21.569Z,3.05
2023-04-26T12:46:23.958Z,3.83
2023-04-26T12:47:27.569Z,3.80
2023-04-26T12:50:28.875Z,4.25
2023-04-26T12:52:05.142Z,3.80
2023-04-26T12:53:21.841Z,3.40
2023-04-26T12:55:20.109Z,3.97
2023-04-26T12:56:57.698Z,3.40
2023-04-26T12:58:22.474Z,3.70
2023-04-26T12:59:41.714Z,4.20
2023-04-26T13:00:45.204Z,3.70
2023-04-26T13:02:47.931Z,3.80
2023-04-26T13:04:50.886Z,3.85
2023-04-26T13:07:53.781Z,3.83
2023-04-26T13:08:57.548Z,4.25
2023-04-26T13:10:07.082Z,3.65
2023-04-26T13:11:11.084Z,3.50
2023-04-26T13:12:14.278Z,3.70
2023-04-26T13:13:18.346Z,3.45
2023-04-26T13:14:23.257Z,4.22
2023-04-26T13:15:29.614Z,3.70
2023-04-26T13:16:34.193Z,3.97
2023-04-26T13:17:38.863Z,4.40
2023-04-26T13:18:42.460Z,4.30
2023-04-26T13:19:46.054Z,4.10
2023-04-26T13:20:48.716Z,3.90
2023-04-26T13:22:54.477Z,3.40
2023-04-26T13:24:00.076Z,3.75
2023-04-26T13:25:03.726Z,3.67
2023-04-26T13:26:06.414Z,4.20
2023-04-26T13:27:31.530Z,3.95
2023-04-26T13:29:02.877Z,3.78
2023-04-26T13:30:17.517Z,4.25
2023-04-26T13:31:55.252Z,3.88
2023-04-26T13:33:00.447Z,4.10
2023-04-26T13:34:03.964Z,4.20
2023-04-26T13:35:23.909Z,4.40
2023-04-26T13:39:25.234Z,4.35
2023-04-26T13:40:50.949Z,4.68
2023-04-26T13:41:58.840Z,3.67
2023-04-26T13:43:02.914Z,4.28
2023-04-26T13:44:05.997Z,3.72
2023-04-26T13:45:13.340Z,3.13
2023-04-26T13:46:19.496Z,3.75
2023-04-26T13:47:25.150Z,3.80
2023-04-26T13:48:31.226Z,3.70
2023-04-26T13:49:34.621Z,3.83
2023-04-26T13:50:40.797Z,3.80
2023-04-26T13:51:44.938Z,3.70
2023-04-26T13:52:52.151Z,3.70
2023-04-26T13:54:46.267Z,3.85
2023-04-26T13:56:26.337Z,3.13
2023-04-26T13:58:18.301Z,3.28
2023-04-26T13:59:59.638Z,3.53
2023-04-26T14:01:04.846Z,3.88
2023-04-26T14:02:12.729Z,3.65
2023-04-26T14:06:29.197Z,4.25
2023-04-26T14:07:35.531Z,3.40
2023-04-26T14:09:29.359Z,3.92
2023-04-26T14:16:56.483Z,3.28
2023-04-26T14:19:32.605Z,3.05
2023-04-26T14:23:34.220Z,4.18
2023-04-26T14:24:41.127Z,3.00
2023-04-26T14:25:44.870Z,3.53
2023-04-26T14:26:47.241Z,3.30
2023-04-26T14:28:28.055Z,3.50
2023-04-26T14:46:19.920Z,3.67
2023-04-26T14:47:22.557Z,2.60
2023-04-26T14:48:26.292Z,3.40
2023-04-26T14:49:29.133Z,3.22
2023-04-26T14:50:42.423Z,3.42
2023-04-26T14:52:42.669Z,3.10
2023-04-26T14:53:51.828Z,3.25
2023-04-26T14:54:54.453Z,3.30
2023-04-26T14:55:58.403Z,2.83
2023-04-26T14:57:02.819Z,2.72
2023-04-26T14:59:57.128Z,3.55
2023-04-26T15:01:00.854Z,4.30
2023-04-26T15:07:02.549Z,3.40
2023-04-26T15:08:06.093Z,4.18
2023-04-26T15:09:11.516Z,3.75
2023-04-26T15:10:14.014Z,4.15
2023-04-26T15:11:26.069Z,4.75
2023-04-26T15:12:28.621Z,3.88
2023-04-26T15:13:31.949Z,3.65
2023-04-26T15:15:14.485Z,4.30
2023-04-26T15:16:49.797Z,3.65
2023-04-26T15:17:56.435Z,4.00
2023-04-26T15:19:05.133Z,4.53
2023-04-26T15:20:10.610Z,4.22
2023-04-26T15:21:29.958Z,5.10
2023-04-26T15:22:33.338Z,4.78
2023-04-26T15:23:37.162Z,3.72
2023-04-26T15:24:43.710Z,3.83
2023-04-26T15:25:47.242Z,4.78
2023-04-26T15:26:49.750Z,3.50
2023-04-26T15:27:57.700Z,4.13
2023-04-26T15:29:01.439Z,4.10
2023-04-26T15:30:04.850Z,4.25
2023-04-26T15:31:28.116Z,4.20
2023-04-26T15:32:32.113Z,4.22
2023-04-26T15:33:35.720Z,3.90
2023-04-26T15:34:40.677Z,4.03
2023-04-26T15:35:44.520Z,3.85
2023-04-26T15:36:47.137Z,4.28
2023-04-26T15:37:53.828Z,3.90
2023-04-26T15:39:05.989Z,4.10
2023-04-26T15:45:36.993Z,3.63
2023-04-26T15:46:39.466Z,4.30
2023-04-26T15:47:47.752Z,4.13
2023-04-26T15:48:55.061Z,3.45
2023-04-26T15:51:30.249Z,3.70
2023-04-26T15:52:38.614Z,3.90
2023-04-26T15:54:30.861Z,3.88
2023-04-26T15:57:37.362Z,3.80
2023-04-26T16:00:00.840Z,4.03
2023-04-26T16:01:58.372Z,4.35
2023-04-26T16:04:33.275Z,3.60
2023-04-26T16:05:41.356Z,3.90
2023-04-26T16:11:19.057Z,3.92
2023-04-26T16:12:44.898Z,3.50
2023-04-26T16:14:16.085Z,3.30
2023-04-26T16:15:25.113Z,3.10
2023-04-26T16:16:43.695Z,2.85
2023-04-26T16:18:27.462Z,4.05
2023-04-26T16:21:55.240Z,3.50
2023-04-26T16:23:24.684Z,4.35
2023-04-26T16:25:07.530Z,3.75
2023-04-26T16:26:35.755Z,4.00
2023-04-26T16:29:44.369Z,3.95
2023-04-26T16:31:31.320Z,3.30
2023-04-26T16:32:34.935Z,3.70
2023-04-26T16:42:41.667Z,3.90
2023-04-26T16:44:11.888Z,3.63
2023-04-26T16:45:53.082Z,3.20
2023-04-26T16:48:31.286Z,4.07
2023-04-26T16:49:34.788Z,3.95
2023-04-26T16:50:37.313Z,4.10
2023-04-26T16:51:42.239Z,3.17
2023-04-26T16:52:44.758Z,3.60
2023-04-26T16:53:48.277Z,3.60
2023-04-26T16:54:52.402Z,4.10
2023-04-26T16:56:07.034Z,3.20
2023-04-26T16:57:11.263Z,3.92
2023-04-26T16:58:14.323Z,3.65
2023-04-26T16:59:18.073Z,4.07
2023-04-26T17:00:20.718Z,3.10
2023-04-26T17:01:24.232Z,3.30
2023-04-26T17:02:27.020Z,3.58
2023-04-26T17:03:35.612Z,3.90
2023-04-26T17:04:39.285Z,3.50
2023-04-26T17:05:43.054Z,3.10
2023-04-26T17:06:46.878Z,3.90
2023-04-26T17:07:49.537Z,3.60
2023-04-26T17:08:56.443Z,3.67
2023-04-26T17:10:10.128Z,3.55
2023-04-26T17:11:15.664Z,3.88
2023-04-26T17:12:18.056Z,3.65
2023-04-26T17:13:23.162Z,3.20
2023-04-26T17:14:26.827Z,3.60
2023-04-26T17:15:30.401Z,3.72
2023-04-26T17:16:33.727Z,3.65
2023-04-26T17:17:36.713Z,4.10
2023-04-26T17:18:40.195Z,3.83
2023-04-26T17:19:42.641Z,3.80
2023-04-26T17:20:46.081Z,3.90
2023-04-26T17:21:48.609Z,3.42
2023-04-26T17:22:52.059Z,3.90
2023-04-26T17:23:55.916Z,4.40
2023-04-26T17:24:59.844Z,3.33
2023-04-26T17:26:04.458Z,3.65
2023-04-26T17:27:06.735Z,4.13
2023-04-26T17:28:12.472Z,3.92
2023-04-26T17:29:15.174Z,4.20
2023-04-26T17:30:21.866Z,4.05
2023-04-26T17:31:25.655Z,4.03
2023-04-26T17:32:28.477Z,3.53
2023-04-26T17:33:32.086Z,4.28
2023-04-26T17:34:35.698Z,4.20
2023-04-26T17:35:37.939Z,3.63
2023-04-26T17:36:45.686Z,3.70
2023-04-26T17:37:50.546Z,3.35
2023-04-26T17:38:56.805Z,4.47
2023-04-26T17:40:00.562Z,4.15
2023-04-26T17:41:03.857Z,3.90